sensor_id;sensor_type;location;lat;lon;timestamp;pressure;altitude;pressure_sealevel;temperature;humidity
71195;BME280;58908;51.426;7.714;2023-05-11T00:00:46;99603.03;;;12.11;100.00
71195;BME280;58908;51.426;7.714;2023-05-11T00:03:13;99607.25;;;12.14;100.00
71195;BME280;58908;51.426;7.714;2023-05-11T00:05:39;99595.94;;;12.12;100.00
71195;BME280;58908;51.426;7.714;2023-05-11T00:08:06;99602.91;;;12.13;100.00
71195;BME280;58908;51.426;7.714;2023-05-11T00:10:33;99601.97;;;12.14;100.00
71195;BME280;58908;51.426;7.714;2023-05-11T00:12:59;99600.56;;;12.08;100.00
71195;BME280;58908;51.426;7.714;2023-05-11T00:15:25;99592.47;;;12.11;100.00
71195;BME280;58908;51.426;7.714;2023-05-11T00:17:53;99589.81;;;12.11;100.00
71195;BME280;58908;51.426;7.714;2023-05-11T00:20:19;99590.28;;;12.04;100.00
71195;BME280;58908;51.426;7.714;2023-05-11T00:22:47;99591.16;;;12.04;100.00
71195;BME280;58908;51.426;7.714;2023-05-11T00:25:13;99587.84;;;12.01;100.00
71195;BME280;58908;51.426;7.714;2023-05-11T00:27:40;99585.00;;;12.04;100.00
71195;BME280;58908;51.426;7.714;2023-05-11T00:30:10;99579.84;;;12.02;100.00
71195;BME280;58908;51.426;7.714;2023-05-11T00:32:36;99584.91;;;12.05;100.00
71195;BME280;58908;51.426;7.714;2023-05-11T00:35:04;99579.41;;;12.08;100.00
71195;BME280;58908;51.426;7.714;2023-05-11T00:37:31;99583.22;;;12.04;100.00
71195;BME280;58908;51.426;7.714;2023-05-11T00:39:57;99581.63;;;12.02;100.00
71195;BME280;58908;51.426;7.714;2023-05-11T00:42:23;99579.91;;;12.01;100.00
71195;BME280;58908;51.426;7.714;2023-05-11T00:44:50;99580.56;;;12.04;100.00
71195;BME280;58908;51.426;7.714;2023-05-11T00:47:16;99577.19;;;12.02;100.00
71195;BME280;58908;51.426;7.714;2023-05-11T00:49:42;99572.00;;;12.01;100.00
71195;BME280;58908;51.426;7.714;2023-05-11T00:52:10;99564.16;;;11.99;100.00
71195;BME280;58908;51.426;7.714;2023-05-11T00:54:36;99577.78;;;11.93;100.00
71195;BME280;58908;51.426;7.714;2023-05-11T00:57:04;99580.72;;;11.89;100.00
71195;BME280;58908;51.426;7.714;2023-05-11T00:59:30;99579.78;;;11.90;100.00
71195;BME280;58908;51.426;7.714;2023-05-11T01:01:57;99583.28;;;11.91;100.00
71195;BME280;58908;51.426;7.714;2023-05-11T01:04:23;99584.84;;;11.93;100.00
71195;BME280;58908;51.426;7.714;2023-05-11T01:06:51;99583.91;;;11.94;100.00
71195;BME280;58908;51.426;7.714;2023-05-11T01:09:26;99587.50;;;11.93;100.00
71195;BME280;58908;51.426;7.714;2023-05-11T01:11:56;99583.91;;;11.94;100.00
71195;BME280;58908;51.426;7.714;2023-05-11T01:14:26;99582.88;;;11.96;100.00
71195;BME280;58908;51.426;7.714;2023-05-11T01:16:56;99584.47;;;11.99;100.00
71195;BME280;58908;51.426;7.714;2023-05-11T01:19:28;99583.59;;;11.98;100.00
71195;BME280;58908;51.426;7.714;2023-05-11T01:22:01;99584.25;;;12.02;100.00
71195;BME280;58908;51.426;7.714;2023-05-11T01:24:39;99583.44;;;12.01;100.00
71195;BME280;58908;51.426;7.714;2023-05-11T01:27:31;99582.03;;;11.96;100.00
71195;BME280;58908;51.426;7.714;2023-05-11T01:32:50;99581.38;;;11.93;100.00
71195;BME280;58908;51.426;7.714;2023-05-11T01:35:19;99584.13;;;11.91;100.00
71195;BME280;58908;51.426;7.714;2023-05-11T01:37:46;99584.78;;;11.94;100.00
71195;BME280;58908;51.426;7.714;2023-05-11T01:40:14;99593.56;;;11.95;100.00
71195;BME280;58908;51.426;7.714;2023-05-11T01:42:43;99592.91;;;11.92;100.00
71195;BME280;58908;51.426;7.714;2023-05-11T01:45:11;99593.84;;;11.91;100.00
71195;BME280;58908;51.426;7.714;2023-05-11T01:47:38;99592.78;;;11.93;100.00
71195;BME280;58908;51.426;7.714;2023-05-11T01:50:07;99585.28;;;11.87;100.00
71195;BME280;58908;51.426;7.714;2023-05-11T01:52:34;99594.59;;;11.93;100.00
71195;BME280;58908;51.426;7.714;2023-05-11T01:55:02;99595.88;;;11.99;100.00
71195;BME280;58908;51.426;7.714;2023-05-11T01:57:29;99596.53;;;12.03;100.00
71195;BME280;58908;51.426;7.714;2023-05-11T01:59:56;99601.72;;;12.04;100.00
71195;BME280;58908;51.426;7.714;2023-05-11T02:02:23;99599.09;;;12.04;100.00
71195;BME280;58908;51.426;7.714;2023-05-11T02:04:50;99603.22;;;12.08;100.00
71195;BME280;58908;51.426;7.714;2023-05-11T02:07:18;99600.56;;;12.08;100.00
71195;BME280;58908;51.426;7.714;2023-05-11T02:09:45;99602.56;;;12.05;100.00
71195;BME280;58908;51.426;7.714;2023-05-11T02:12:13;99602.97;;;11.99;100.00
71195;BME280;58908;51.426;7.714;2023-05-11T02:14:42;99601.28;;;11.98;100.00
71195;BME280;58908;51.426;7.714;2023-05-11T02:17:10;99599.75;;;11.94;100.00
71195;BME280;58908;51.426;7.714;2023-05-11T02:19:38;99601.56;;;11.93;100.00
71195;BME280;58908;51.426;7.714;2023-05-11T02:22:04;99599.38;;;12.00;100.00
71195;BME280;58908;51.426;7.714;2023-05-11T02:24:33;99605.53;;;12.00;100.00
71195;BME280;58908;51.426;7.714;2023-05-11T02:27:00;99604.59;;;12.01;100.00
71195;BME280;58908;51.426;7.714;2023-05-11T02:29:26;99602.97;;;11.99;100.00
71195;BME280;58908;51.426;7.714;2023-05-11T02:31:54;99601.06;;;12.01;100.00
71195;BME280;58908;51.426;7.714;2023-05-11T02:34:22;99594.00;;;12.01;100.00
71195;BME280;58908;51.426;7.714;2023-05-11T02:36:50;99598.44;;;12.01;100.00
71195;BME280;58908;51.426;7.714;2023-05-11T02:39:19;99595.88;;;11.99;100.00
71195;BME280;58908;51.426;7.714;2023-05-11T02:41:48;99603.72;;;12.01;100.00
71195;BME280;58908;51.426;7.714;2023-05-11T02:44:19;99601.16;;;11.99;100.00
71195;BME280;58908;51.426;7.714;2023-05-11T02:46:46;99601.06;;;12.01;100.00
71195;BME280;58908;51.426;7.714;2023-05-11T02:49:14;99603.50;;;12.04;100.00
71195;BME280;58908;51.426;7.714;2023-05-11T02:51:43;99603.41;;;12.05;100.00
71195;BME280;58908;51.426;7.714;2023-05-11T02:54:12;99605.31;;;12.03;100.00
71195;BME280;58908;51.426;7.714;2023-05-11T02:56:39;99605.19;;;12.05;100.00
71195;BME280;58908;51.426;7.714;2023-05-11T02:59:07;99609.75;;;12.03;100.00
71195;BME280;58908;51.426;7.714;2023-05-11T03:01:33;99614.00;;;12.05;100.00
71195;BME280;58908;51.426;7.714;2023-05-11T03:04:02;99604.38;;;12.04;100.00
71195;BME280;58908;51.426;7.714;2023-05-11T03:06:28;99612.09;;;12.07;100.00
71195;BME280;58908;51.426;7.714;2023-05-11T03:08:55;99607.09;;;12.03;100.00
71195;BME280;58908;51.426;7.714;2023-05-11T03:11:22;99609.75;;;12.03;100.00
71195;BME280;58908;51.426;7.714;2023-05-11T03:13:50;99616.84;;;12.02;100.00
71195;BME280;58908;51.426;7.714;2023-05-11T03:16:18;99612.06;;;11.95;100.00
71195;BME280;58908;51.426;7.714;2023-05-11T03:18:45;99609.94;;;12.00;100.00
71195;BME280;58908;51.426;7.714;2023-05-11T03:21:13;99610.69;;;12.02;100.00
71195;BME280;58908;51.426;7.714;2023-05-11T03:23:40;99600.34;;;11.99;100.00
71195;BME280;58908;51.426;7.714;2023-05-11T03:26:07;99609.88;;;12.01;100.00
71195;BME280;58908;51.426;7.714;2023-05-11T03:28:33;99609.22;;;11.98;100.00
71195;BME280;58908;51.426;7.714;2023-05-11T03:31:01;99608.34;;;11.97;100.00
71195;BME280;58908;51.426;7.714;2023-05-11T03:33:28;99600.91;;;11.90;100.00
71195;BME280;58908;51.426;7.714;2023-05-11T03:35:55;99609.81;;;11.89;100.00
71195;BME280;58908;51.426;7.714;2023-05-11T03:38:22;99608.31;;;11.85;100.00
71195;BME280;58908;51.426;7.714;2023-05-11T03:40:50;99602.91;;;11.87;100.00
71195;BME280;58908;51.426;7.714;2023-05-11T03:43:17;99602.09;;;11.86;100.00
71195;BME280;58908;51.426;7.714;2023-05-11T03:45:44;99595.28;;;11.82;100.00
71195;BME280;58908;51.426;7.714;2023-05-11T03:48:10;99607.38;;;11.86;100.00
71195;BME280;58908;51.426;7.714;2023-05-11T03:50:40;99603.03;;;11.85;100.00
71195;BME280;58908;51.426;7.714;2023-05-11T03:53:06;99598.69;;;11.84;100.00
71195;BME280;58908;51.426;7.714;2023-05-11T03:55:33;99596.59;;;11.89;100.00
71195;BME280;58908;51.426;7.714;2023-05-11T03:57:59;99598.06;;;11.93;100.00
71195;BME280;58908;51.426;7.714;2023-05-11T04:00:26;99599.13;;;11.91;100.00
71195;BME280;58908;51.426;7.714;2023-05-11T04:02:52;99594.69;;;11.91;100.00
71195;BME280;58908;51.426;7.714;2023-05-11T04:05:19;99601.78;;;11.91;100.00
71195;BME280;58908;51.426;7.714;2023-05-11T04:07:47;99598.69;;;11.84;100.00
71195;BME280;58908;51.426;7.714;2023-05-11T04:10:13;99600.19;;;11.88;100.00
71195;BME280;58908;51.426;7.714;2023-05-11T04:12:39;99604.06;;;11.83;100.00
71195;BME280;58908;51.426;7.714;2023-05-11T04:15:06;99608.09;;;11.88;100.00
71195;BME280;58908;51.426;7.714;2023-05-11T04:17:32;99608.84;;;11.90;100.00
71195;BME280;58908;51.426;7.714;2023-05-11T04:19:58;99611.41;;;11.92;100.00
71195;BME280;58908;51.426;7.714;2023-05-11T04:22:25;99607.44;;;11.85;100.00
71195;BME280;58908;51.426;7.714;2023-05-11T04:24:52;99605.47;;;11.88;100.00
71195;BME280;58908;51.426;7.714;2023-05-11T04:27:19;99609.88;;;11.88;100.00
71195;BME280;58908;51.426;7.714;2023-05-11T04:29:45;99605.47;;;11.88;100.00
71195;BME280;58908;51.426;7.714;2023-05-11T04:32:12;99608.66;;;11.93;100.00
71195;BME280;58908;51.426;7.714;2023-05-11T04:34:39;99613.09;;;11.93;100.00
71195;BME280;58908;51.426;7.714;2023-05-11T04:37:06;99610.34;;;11.94;100.00
71195;BME280;58908;51.426;7.714;2023-05-11T04:39:32;99610.91;;;11.99;100.00
71195;BME280;58908;51.426;7.714;2023-05-11T04:41:59;99613.63;;;11.97;100.00
71195;BME280;58908;51.426;7.714;2023-05-11T04:44:26;99622.72;;;11.93;100.00
71195;BME280;58908;51.426;7.714;2023-05-11T04:46:52;99620.09;;;11.93;100.00
71195;BME280;58908;51.426;7.714;2023-05-11T04:49:19;99612.81;;;11.97;100.00
71195;BME280;58908;51.426;7.714;2023-05-11T04:51:45;99620.63;;;11.98;100.00
71195;BME280;58908;51.426;7.714;2023-05-11T04:54:12;99619.78;;;11.98;100.00
71195;BME280;58908;51.426;7.714;2023-05-11T04:56:38;99623.16;;;12.00;100.00
71195;BME280;58908;51.426;7.714;2023-05-11T04:59:06;99614.72;;;12.07;100.00
71195;BME280;58908;51.426;7.714;2023-05-11T05:01:32;99615.59;;;12.08;100.00
71195;BME280;58908;51.426;7.714;2023-05-11T05:03:58;99615.38;;;12.11;100.00
71195;BME280;58908;51.426;7.714;2023-05-11T05:06:25;99615.31;;;12.12;100.00
71195;BME280;58908;51.426;7.714;2023-05-11T05:08:51;99619.81;;;12.10;100.00
71195;BME280;58908;51.426;7.714;2023-05-11T05:11:17;99617.69;;;12.03;100.00
71195;BME280;58908;51.426;7.714;2023-05-11T05:13:44;99621.53;;;12.11;100.00
71195;BME280;58908;51.426;7.714;2023-05-11T05:16:11;99623.53;;;12.08;100.00
71195;BME280;58908;51.426;7.714;2023-05-11T05:18:37;99619.50;;;12.15;100.00
71195;BME280;58908;51.426;7.714;2023-05-11T05:21:04;99619.34;;;12.18;100.00
71195;BME280;58908;51.426;7.714;2023-05-11T05:23:30;99624.63;;;12.18;100.00
71195;BME280;58908;51.426;7.714;2023-05-11T05:25:56;99625.16;;;12.23;100.00
71195;BME280;58908;51.426;7.714;2023-05-11T05:28:22;99627.50;;;12.27;100.00
71195;BME280;58908;51.426;7.714;2023-05-11T05:30:49;99627.72;;;12.24;100.00
71195;BME280;58908;51.426;7.714;2023-05-11T05:33:16;99635.66;;;12.24;100.00
71195;BME280;58908;51.426;7.714;2023-05-11T05:35:43;99643.66;;;12.23;100.00
71195;BME280;58908;51.426;7.714;2023-05-11T05:38:10;99650.56;;;12.25;100.00
71195;BME280;58908;51.426;7.714;2023-05-11T05:40:37;99651.84;;;12.32;100.00
71195;BME280;58908;51.426;7.714;2023-05-11T05:43:03;99646.91;;;12.40;100.00
71195;BME280;58908;51.426;7.714;2023-05-11T05:45:30;99654.88;;;12.53;100.00
71195;BME280;58908;51.426;7.714;2023-05-11T05:47:56;99654.38;;;12.60;100.00
71195;BME280;58908;51.426;7.714;2023-05-11T05:50:25;99657.66;;;12.64;100.00
71195;BME280;58908;51.426;7.714;2023-05-11T05:52:51;99659.56;;;12.62;100.00
71195;BME280;58908;51.426;7.714;2023-05-11T05:55:18;99656.91;;;12.62;100.00
71195;BME280;58908;51.426;7.714;2023-05-11T05:57:44;99661.34;;;12.61;100.00
71195;BME280;58908;51.426;7.714;2023-05-11T06:00:11;99659.47;;;12.76;100.00
71195;BME280;58908;51.426;7.714;2023-05-11T06:02:37;99664.13;;;12.72;100.00
71195;BME280;58908;51.426;7.714;2023-05-11T06:05:03;99652.50;;;12.75;100.00
71195;BME280;58908;51.426;7.714;2023-05-11T06:07:31;99661.41;;;12.74;100.00
71195;BME280;58908;51.426;7.714;2023-05-11T06:09:57;99667.63;;;12.73;100.00
71195;BME280;58908;51.426;7.714;2023-05-11T06:12:24;99670.38;;;12.71;100.00
71195;BME280;58908;51.426;7.714;2023-05-11T06:14:51;99659.88;;;12.70;100.00
71195;BME280;58908;51.426;7.714;2023-05-11T06:17:17;99660.13;;;12.79;100.00
71195;BME280;58908;51.426;7.714;2023-05-11T06:19:43;99669.84;;;12.79;100.00
71195;BME280;58908;51.426;7.714;2023-05-11T06:22:10;99670.94;;;12.89;100.00
71195;BME280;58908;51.426;7.714;2023-05-11T06:24:37;99661.50;;;12.85;100.00
71195;BME280;58908;51.426;7.714;2023-05-11T06:27:03;99662.19;;;13.01;100.00
71195;BME280;58908;51.426;7.714;2023-05-11T06:29:30;99666.53;;;13.27;100.00
71195;BME280;58908;51.426;7.714;2023-05-11T06:31:56;99669.28;;;13.38;100.00
71195;BME280;58908;51.426;7.714;2023-05-11T06:34:22;99656.78;;;13.40;100.00
71195;BME280;58908;51.426;7.714;2023-05-11T06:36:49;99661.47;;;13.36;100.00
71195;BME280;58908;51.426;7.714;2023-05-11T06:39:15;99661.31;;;13.38;100.00
71195;BME280;58908;51.426;7.714;2023-05-11T06:41:43;99665.25;;;13.45;100.00
71195;BME280;58908;51.426;7.714;2023-05-11T06:44:10;99671.19;;;13.48;100.00
71195;BME280;58908;51.426;7.714;2023-05-11T06:46:37;99663.56;;;13.31;100.00
71195;BME280;58908;51.426;7.714;2023-05-11T06:49:03;99665.06;;;13.23;100.00
71195;BME280;58908;51.426;7.714;2023-05-11T06:51:29;99663.97;;;13.38;100.00
71195;BME280;58908;51.426;7.714;2023-05-11T06:53:56;99666.41;;;13.53;100.00
71195;BME280;58908;51.426;7.714;2023-05-11T06:56:22;99666.31;;;13.67;100.00
71195;BME280;58908;51.426;7.714;2023-05-11T06:58:49;99672.50;;;13.79;100.00
71195;BME280;58908;51.426;7.714;2023-05-11T07:01:16;99671.47;;;13.69;100.00
71195;BME280;58908;51.426;7.714;2023-05-11T07:03:42;99667.22;;;13.66;100.00
71195;BME280;58908;51.426;7.714;2023-05-11T07:06:08;99670.16;;;13.87;100.00
71195;BME280;58908;51.426;7.714;2023-05-11T07:08:34;99673.47;;;13.90;100.00
71195;BME280;58908;51.426;7.714;2023-05-11T07:11:01;99676.94;;;13.91;100.00
71195;BME280;58908;51.426;7.714;2023-05-11T07:13:27;99668.97;;;13.91;100.00
71195;BME280;58908;51.426;7.714;2023-05-11T07:15:55;99663.91;;;13.88;100.00
71195;BME280;58908;51.426;7.714;2023-05-11T07:18:21;99669.19;;;14.00;100.00
71195;BME280;58908;51.426;7.714;2023-05-11T07:20:47;99663.13;;;13.98;100.00
71195;BME280;58908;51.426;7.714;2023-05-11T07:23:14;99660.69;;;13.95;100.00
71195;BME280;58908;51.426;7.714;2023-05-11T07:25:40;99662.59;;;14.06;100.00
71195;BME280;58908;51.426;7.714;2023-05-11T07:28:07;99659.88;;;13.95;100.00
71195;BME280;58908;51.426;7.714;2023-05-11T07:30:33;99661.16;;;14.13;100.00
71195;BME280;58908;51.426;7.714;2023-05-11T07:33:01;99663.59;;;14.16;100.00
71195;BME280;58908;51.426;7.714;2023-05-11T07:35:27;99662.13;;;14.12;100.00
71195;BME280;58908;51.426;7.714;2023-05-11T07:37:54;99670.47;;;14.31;100.00
71195;BME280;58908;51.426;7.714;2023-05-11T07:40:20;99671.88;;;14.24;100.00
71195;BME280;58908;51.426;7.714;2023-05-11T07:42:46;99678.84;;;14.01;100.00
71195;BME280;58908;51.426;7.714;2023-05-11T07:45:13;99673.97;;;13.95;100.00
71195;BME280;58908;51.426;7.714;2023-05-11T07:47:39;99670.81;;;14.26;100.00
71195;BME280;58908;51.426;7.714;2023-05-11T07:50:07;99672.00;;;14.45;100.00
71195;BME280;58908;51.426;7.714;2023-05-11T07:52:34;99671.94;;;14.35;100.00
71195;BME280;58908;51.426;7.714;2023-05-11T07:55:00;99671.16;;;14.45;100.00
71195;BME280;58908;51.426;7.714;2023-05-11T07:57:26;99667.97;;;14.40;100.00
71195;BME280;58908;51.426;7.714;2023-05-11T07:59:53;99672.31;;;14.41;100.00
71195;BME280;58908;51.426;7.714;2023-05-11T08:02:19;99666.97;;;14.53;100.00
71195;BME280;58908;51.426;7.714;2023-05-11T08:04:45;99671.59;;;14.62;100.00
71195;BME280;58908;51.426;7.714;2023-05-11T08:07:13;99676.38;;;14.57;100.00
71195;BME280;58908;51.426;7.714;2023-05-11T08:09:39;99677.88;;;14.61;100.00
71195;BME280;58908;51.426;7.714;2023-05-11T08:12:05;99671.31;;;14.54;100.00
71195;BME280;58908;51.426;7.714;2023-05-11T08:14:32;99674.84;;;14.66;100.00
71195;BME280;58908;51.426;7.714;2023-05-11T08:16:58;99674.88;;;14.43;100.00
71195;BME280;58908;51.426;7.714;2023-05-11T08:19:24;99674.78;;;14.55;100.00
71195;BME280;58908;51.426;7.714;2023-05-11T08:21:51;99679.91;;;14.35;100.00
71195;BME280;58908;51.426;7.714;2023-05-11T08:24:18;99674.47;;;14.59;100.00
71195;BME280;58908;51.426;7.714;2023-05-11T08:26:45;99677.25;;;14.58;100.00
71195;BME280;58908;51.426;7.714;2023-05-11T08:29:12;99672.13;;;14.44;100.00
71195;BME280;58908;51.426;7.714;2023-05-11T08:31:39;99672.22;;;14.43;100.00
71195;BME280;58908;51.426;7.714;2023-05-11T08:34:05;99674.97;;;14.41;100.00
71195;BME280;58908;51.426;7.714;2023-05-11T08:36:32;99681.50;;;14.71;100.00
71195;BME280;58908;51.426;7.714;2023-05-11T08:38:58;99666.66;;;14.69;100.00
71195;BME280;58908;51.426;7.714;2023-05-11T08:41:26;99674.44;;;14.83;100.00
71195;BME280;58908;51.426;7.714;2023-05-11T08:43:52;99671.00;;;15.15;100.00
71195;BME280;58908;51.426;7.714;2023-05-11T08:46:19;99665.28;;;15.32;100.00
71195;BME280;58908;51.426;7.714;2023-05-11T08:48:46;99667.00;;;15.10;100.00
71195;BME280;58908;51.426;7.714;2023-05-11T08:51:13;99665.19;;;14.99;100.00
71195;BME280;58908;51.426;7.714;2023-05-11T08:53:40;99660.78;;;15.22;100.00
71195;BME280;58908;51.426;7.714;2023-05-11T08:56:07;99670.59;;;15.54;100.00
71195;BME280;58908;51.426;7.714;2023-05-11T08:58:34;99665.66;;;15.61;100.00
71195;BME280;58908;51.426;7.714;2023-05-11T09:01:01;99662.59;;;15.98;100.00
71195;BME280;58908;51.426;7.714;2023-05-11T09:03:31;99669.25;;;15.93;100.00
71195;BME280;58908;51.426;7.714;2023-05-11T09:05:59;99676.94;;;16.29;100.00
71195;BME280;58908;51.426;7.714;2023-05-11T09:08:28;99669.75;;;15.76;100.00
71195;BME280;58908;51.426;7.714;2023-05-11T09:10:55;99670.53;;;16.20;100.00
71195;BME280;58908;51.426;7.714;2023-05-11T09:13:21;99665.00;;;16.01;100.00
71195;BME280;58908;51.426;7.714;2023-05-11T09:15:51;99665.03;;;15.79;100.00
71195;BME280;58908;51.426;7.714;2023-05-11T09:18:17;99659.09;;;15.87;100.00
71195;BME280;58908;51.426;7.714;2023-05-11T09:20:44;99665.47;;;16.17;100.00
71195;BME280;58908;51.426;7.714;2023-05-11T09:23:12;99660.25;;;16.38;100.00
71195;BME280;58908;51.426;7.714;2023-05-11T09:25:40;99662.34;;;17.47;100.00
71195;BME280;58908;51.426;7.714;2023-05-11T09:28:10;99650.56;;;18.38;100.00
71195;BME280;58908;51.426;7.714;2023-05-11T09:30:36;99646.06;;;18.29;97.08
71195;BME280;58908;51.426;7.714;2023-05-11T09:33:04;99641.72;;;17.89;95.22
71195;BME280;58908;51.426;7.714;2023-05-11T09:35:31;99642.72;;;18.75;94.57
71195;BME280;58908;51.426;7.714;2023-05-11T09:37:59;99628.19;;;19.61;92.31
71195;BME280;58908;51.426;7.714;2023-05-11T09:40:25;99627.09;;;20.87;87.04
71195;BME280;58908;51.426;7.714;2023-05-11T09:42:51;99625.56;;;20.67;85.04
71195;BME280;58908;51.426;7.714;2023-05-11T09:47:59;99623.19;;;20.29;81.35
71195;BME280;58908;51.426;7.714;2023-05-11T09:50:28;99630.16;;;20.40;88.45
71195;BME280;58908;51.426;7.714;2023-05-11T09:52:56;99626.66;;;20.39;82.33
71195;BME280;58908;51.426;7.714;2023-05-11T09:55:23;99626.88;;;19.65;83.90
71195;BME280;58908;51.426;7.714;2023-05-11T09:57:51;99634.97;;;19.00;83.91
71195;BME280;58908;51.426;7.714;2023-05-11T10:00:18;99633.00;;;18.55;84.80
71195;BME280;58908;51.426;7.714;2023-05-11T10:02:45;99635.41;;;17.60;90.63
71195;BME280;58908;51.426;7.714;2023-05-11T10:05:11;99631.38;;;17.15;93.77
71195;BME280;58908;51.426;7.714;2023-05-11T10:07:39;99635.16;;;17.12;95.49
71195;BME280;58908;51.426;7.714;2023-05-11T10:10:08;99624.00;;;16.98;93.78
71195;BME280;58908;51.426;7.714;2023-05-11T10:12:35;99631.28;;;17.26;95.49
71195;BME280;58908;51.426;7.714;2023-05-11T10:15:04;99637.53;;;16.54;99.17
71195;BME280;58908;51.426;7.714;2023-05-11T10:17:31;99626.34;;;16.92;98.31
71195;BME280;58908;51.426;7.714;2023-05-11T10:19:58;99621.97;;;17.11;98.70
71195;BME280;58908;51.426;7.714;2023-05-11T10:22:25;99623.88;;;16.99;95.30
71195;BME280;58908;51.426;7.714;2023-05-11T10:24:53;99625.41;;;16.61;96.48
71195;BME280;58908;51.426;7.714;2023-05-11T10:27:19;99624.56;;;16.61;98.16
71195;BME280;58908;51.426;7.714;2023-05-11T10:29:46;99623.59;;;16.82;96.34
71195;BME280;58908;51.426;7.714;2023-05-11T10:32:13;99622.69;;;16.92;93.90
71195;BME280;58908;51.426;7.714;2023-05-11T10:34:40;99621.41;;;16.87;95.07
71195;BME280;58908;51.426;7.714;2023-05-11T10:37:07;99620.16;;;16.91;94.73
71195;BME280;58908;51.426;7.714;2023-05-11T10:39:34;99618.88;;;17.36;93.17
71195;BME280;58908;51.426;7.714;2023-05-11T10:42:07;99610.59;;;17.59;90.32
71195;BME280;58908;51.426;7.714;2023-05-11T10:47:25;99612.47;;;18.36;86.07
71195;BME280;58908;51.426;7.714;2023-05-11T10:50:04;99608.97;;;18.55;87.80
71195;BME280;58908;51.426;7.714;2023-05-11T10:52:42;99605.03;;;18.49;87.55
71195;BME280;58908;51.426;7.714;2023-05-11T10:55:16;99613.31;;;18.65;86.53
71195;BME280;58908;51.426;7.714;2023-05-11T10:57:50;99615.50;;;18.13;94.14
71195;BME280;58908;51.426;7.714;2023-05-11T11:00:33;99615.31;;;17.46;97.63
71195;BME280;58908;51.426;7.714;2023-05-11T11:03:12;99613.03;;;17.42;97.83
71195;BME280;58908;51.426;7.714;2023-05-11T11:05:38;99605.66;;;17.55;99.63
71195;BME280;58908;51.426;7.714;2023-05-11T11:08:07;99615.34;;;17.56;99.07
71195;BME280;58908;51.426;7.714;2023-05-11T11:10:34;99609.84;;;17.27;98.59
71195;BME280;58908;51.426;7.714;2023-05-11T11:13:03;99609.56;;;17.30;99.39
71195;BME280;58908;51.426;7.714;2023-05-11T11:18:18;99604.38;;;17.49;98.38
71195;BME280;58908;51.426;7.714;2023-05-11T11:20:45;99597.91;;;18.10;93.41
71195;BME280;58908;51.426;7.714;2023-05-11T11:25:54;99592.44;;;18.12;89.96
71195;BME280;58908;51.426;7.714;2023-05-11T11:28:21;99597.66;;;18.13;91.19
71195;BME280;58908;51.426;7.714;2023-05-11T11:30:53;99598.56;;;18.33;91.30
71195;BME280;58908;51.426;7.714;2023-05-11T11:33:40;99605.50;;;18.15;92.72
71195;BME280;58908;51.426;7.714;2023-05-11T11:36:06;99601.50;;;18.49;94.18
71195;BME280;58908;51.426;7.714;2023-05-11T11:38:33;99606.03;;;17.80;94.60
71195;BME280;58908;51.426;7.714;2023-05-11T11:41:26;99607.06;;;17.59;95.96
71195;BME280;58908;51.426;7.714;2023-05-11T11:43:53;99606.94;;;17.60;98.69
71195;BME280;58908;51.426;7.714;2023-05-11T11:46:25;99610.97;;;17.45;100.00
71195;BME280;58908;51.426;7.714;2023-05-11T11:49:02;99605.25;;;17.09;100.00
71195;BME280;58908;51.426;7.714;2023-05-11T11:51:31;99601.50;;;17.11;100.00
71195;BME280;58908;51.426;7.714;2023-05-11T11:53:58;99601.22;;;17.35;100.00
71195;BME280;58908;51.426;7.714;2023-05-11T11:56:40;99601.75;;;16.88;97.21
71195;BME280;58908;51.426;7.714;2023-05-11T11:59:07;99605.78;;;17.03;99.37
71195;BME280;58908;51.426;7.714;2023-05-11T12:01:38;99602.13;;;17.24;97.46
71195;BME280;58908;51.426;7.714;2023-05-11T12:04:12;99593.13;;;17.46;95.28
71195;BME280;58908;51.426;7.714;2023-05-11T12:06:42;99592.94;;;17.38;93.93
71195;BME280;58908;51.426;7.714;2023-05-11T12:09:11;99593.59;;;17.60;94.15
71195;BME280;58908;51.426;7.714;2023-05-11T12:11:43;99597.47;;;17.47;96.12
71195;BME280;58908;51.426;7.714;2023-05-11T12:14:10;99600.59;;;17.01;99.13
71195;BME280;58908;51.426;7.714;2023-05-11T12:16:37;99593.97;;;16.55;98.54
71195;BME280;58908;51.426;7.714;2023-05-11T12:19:03;99593.69;;;16.99;97.25
71195;BME280;58908;51.426;7.714;2023-05-11T12:21:31;99595.16;;;16.62;96.16
71195;BME280;58908;51.426;7.714;2023-05-11T12:23:58;99591.44;;;16.94;96.22
71195;BME280;58908;51.426;7.714;2023-05-11T12:26:25;99592.34;;;17.34;94.59
71195;BME280;58908;51.426;7.714;2023-05-11T12:29:05;99592.13;;;17.47;92.59
71195;BME280;58908;51.426;7.714;2023-05-11T12:31:33;99586.91;;;17.36;93.32
71195;BME280;58908;51.426;7.714;2023-05-11T12:33:59;99583.22;;;17.07;91.83
71195;BME280;58908;51.426;7.714;2023-05-11T12:36:26;99588.38;;;16.99;96.74
71195;BME280;58908;51.426;7.714;2023-05-11T12:38:53;99580.97;;;16.82;96.31
71195;BME280;58908;51.426;7.714;2023-05-11T12:41:20;99589.41;;;16.46;98.64
71195;BME280;58908;51.426;7.714;2023-05-11T12:43:47;99586.81;;;16.56;100.00
71195;BME280;58908;51.426;7.714;2023-05-11T12:46:14;99599.34;;;16.44;100.00
71195;BME280;58908;51.426;7.714;2023-05-11T12:48:40;99600.38;;;15.79;100.00
71195;BME280;58908;51.426;7.714;2023-05-11T12:51:07;99597.25;;;15.52;100.00
71195;BME280;58908;51.426;7.714;2023-05-11T12:53:33;99595.31;;;15.54;100.00
71195;BME280;58908;51.426;7.714;2023-05-11T12:56:01;99593.00;;;15.49;100.00
71195;BME280;58908;51.426;7.714;2023-05-11T12:58:34;99598.72;;;15.56;100.00
71195;BME280;58908;51.426;7.714;2023-05-11T13:01:00;99595.78;;;15.70;100.00
71195;BME280;58908;51.426;7.714;2023-05-11T13:03:27;99596.03;;;15.78;100.00
71195;BME280;58908;51.426;7.714;2023-05-11T13:06:02;99591.66;;;15.77;100.00
71195;BME280;58908;51.426;7.714;2023-05-11T13:08:28;99593.47;;;15.76;100.00